Landels-Hill Big Creek Reserve Entrance, California Weather observations

Data are for 10 minute period ending at time listed.
 Day   Time   Solar   Ave.   Ave.  Ave.  Vector  Max.   Baro.   Total    
  of    of     Rad.   Air    Rel.  Wind   Wind   Wind  Press.  Precip.   
Year   Day            Temp.  Hum.  Speed  Dir.   Gust                    
2017   (PST)  Kw/m2    F      %     mph   deg.    mph    mb.     in.     
-------------------------------------------------------------------------
 293    0:00   0.00   59.6    83    0.3     6     1.4   1011.0    0.00 
 293    0:10   0.00   59.6    83    0.4    31     1.3   1011.0    0.00 
 293    0:20   0.00   59.7    83    0.0     0     0.0   1011.0    0.00 
 293    0:30   0.00   59.3    84    0.0     0     0.0   1011.1    0.00 
 293    0:40   0.00   59.6    86    0.9   231     2.5   1011.3    0.00 
 293    0:50   0.00   59.5    88    0.2   263     1.3   1011.1    0.00 
 293    1:00   0.00   59.1    88    0.0     0     0.0   1011.1    0.00 
 293    1:10   0.00   59.0    89    0.2    24     1.5   1011.0    0.00 
 293    1:20   0.00   59.1    89    0.0     0     0.0   1011.0    0.00 
 293    1:30   0.00   59.2    90    0.0     0     0.0   1010.9    0.01 
 293    1:40   0.00   59.0    90    0.0     0     0.0   1010.7    0.02 
 293    1:50   0.00   59.0    91    0.0     0     0.0   1010.7    0.00 
 293    2:00   0.00   58.9    91    0.0   244     0.8   1010.6    0.03 
 293    2:10   0.00   58.9    92    0.3    19     2.3   1010.6    0.02 
 293    2:20   0.00   58.8    92    2.5    81     9.1   1010.8    0.01 
 293    2:30   0.00   57.8    92    3.4   142    11.3   1011.0    0.00 
 293    2:40   0.00   57.4    92    1.6   154     8.2   1011.0    0.00 
 293    2:50   0.00   58.0    89    6.2    77    13.0   1011.0    0.00 
 293    3:00   0.01   58.7    83    3.0    78     7.8   1011.0    0.00 
 293    3:10   0.01   58.4    84    2.6    67     5.2   1010.8    0.00 
 293    3:20   0.01   58.3    85    2.5   164     6.6   1011.1    0.00 
 293    3:30   0.00   58.1    81    4.0    66    10.1   1011.3    0.00 
 293    3:40   0.00   57.7    80    1.7    50     4.3   1011.1    0.00 
 293    3:50   0.01   56.7    85    1.2    34     3.5   1011.3    0.00 
 293    4:00   0.01   55.9    89    1.4    24     3.7   1011.3    0.00 
 293    4:10   0.01   55.5    90    1.7    62     3.2   1011.5    0.00 
 293    4:20   0.01   55.1    91    1.5    42     4.2   1011.5    0.00 
 293    4:30   0.01   54.8    92    1.7    29     4.4   1011.7    0.00 
 293    4:40   0.01   54.5    92    1.6    30     3.7   1011.9    0.00 
 293    4:50   0.01   54.1    92    1.4    29     3.7   1012.2    0.00 
 293    5:00   0.01   54.0    93    2.1    57     5.0   1012.2    0.00 
 293    5:10   0.01   54.3    90    2.3    64     4.7   1012.2    0.00 
 293    5:20   0.00   55.1    80    2.5    61     6.2   1012.0    0.00 
 293    5:30   0.00   55.6    73    2.3    57     7.5   1012.0    0.00 
 293    5:40   0.00   55.7    70    3.3    88     8.9   1012.5    0.00 
 293    5:50   0.00   56.1    68    2.2    71     5.6   1012.6    0.00 
 293    6:00   0.00   56.1    66    2.2    89     6.6   1013.1    0.00 
 293    6:10   0.00   55.8    68    2.3    45     5.0   1012.8    0.00 
 293    6:20   0.01   55.7    67    2.3    68     5.7   1012.9    0.00 
 293    6:30   0.01   56.1    64    1.7   259     6.6   1012.8    0.00 
 293    6:40   0.01   56.4    63    2.5   259    10.0   1013.0    0.00 
 293    6:50   0.02   56.9    61    1.9   104     7.5   1013.4    0.00 
 293    7:00   0.03   56.8    60    2.6    72     9.4   1013.6    0.00 
 293    7:10   0.03   56.6    62    2.5    50     4.8   1013.9    0.00 
 293    7:20   0.03   55.1    68    2.9    49     5.4   1014.0    0.00 
 293    7:30   0.02   54.2    72    2.4    29     5.7   1014.0    0.00 
 293    7:40   0.01   54.2    72    2.8    53     5.9   1014.2    0.00 
 293    7:50   0.03   55.9    63    2.1    43     4.4   1014.4    0.00 
 293    8:00   0.03   56.4    63    1.2    33     4.4   1014.5    0.00 
 293    8:10   0.03   54.8    72    1.7    44     5.3   1014.8    0.00 
 293    8:20   0.03   56.9    61    3.8    72    11.2   1015.1    0.00 
 293    8:30   0.03   58.9    55    2.3    76     7.4   1014.9    0.00 
 293    8:40   0.03   58.1    61    1.8    84     5.2   1014.8    0.00 
 293    8:50   0.04   58.5    59    3.5   166     8.7   1014.9    0.00 
 293    9:00   0.05   58.5    59    2.7    83     7.1   1014.9    0.00 
 293    9:10   0.05   58.7    63    3.4   156     8.3   1015.0    0.00 
 293    9:20   0.06   58.7    61    3.5   138     8.1   1014.8    0.00 
 293    9:30   0.05   59.1    60    3.9   140     8.6   1014.9    0.00 
 293    9:40   0.04   59.4    57    4.0   114    11.7   1014.9    0.00 
 293    9:50   0.05   59.1    64    5.1   169    11.0   1015.1    0.00 
 293   10:00   0.34   58.7    67    5.2   172    11.0   1015.2    0.00 
 293   10:10   0.51   59.8    63    4.6   139    12.3   1015.0    0.00 
 293   10:20   0.53   60.0    64    6.7   169    14.1   1015.0    0.00 
 293   10:30   0.53   60.1    65    5.9   165    16.5   1015.1    0.00 
 293   10:40   0.55   60.7    62    5.5   106    15.3   1015.2    0.00 
 293   10:50   0.56   60.8    61    4.7    84    13.2   1015.5    0.00 
 293   11:00   0.58   60.8    62    5.1    66    15.3   1015.5    0.00 
 293   11:10   0.60   60.6    62    6.1    78    16.7   1015.5    0.00 
 293   11:20   0.60   60.6    63    4.9   126    15.1   1015.5    0.00 
 293   11:30   0.61   61.1    61    5.3    78    13.9   1015.4    0.00 
 293   11:40   0.61   60.9    60    5.5   115    15.0   1015.3    0.00 
 293   11:50   0.62   60.7    62    6.5   131    13.5   1015.2    0.00 
 293   12:00   0.62   60.7    62    7.6   170    14.2   1015.1    0.00 
 293   12:10   0.62   60.8    62    7.9   174    19.6   1015.0    0.00 
 293   12:20   0.62   60.7    63    8.3   162    17.3   1015.1    0.00 
 293   12:30   0.62   60.4    64    8.2   155    21.0   1015.1    0.00 
 293   12:40   0.62   60.8    64    6.6   164    15.1   1014.9    0.00 
 293   12:50   0.61   60.5    66    8.8   163    18.3   1014.9    0.00 
 293   13:00   0.60   60.6    67    7.3   164    20.5   1014.9    0.00 
 293   13:10   0.60   60.8    68    7.6   161    15.9   1014.6    0.00 
 293   13:20   0.58   60.7    68    8.4   161    21.9   1014.6    0.00 
 293   13:30   0.56   60.4    69    6.8   160    19.1   1014.6    0.00 
 293   13:40   0.54   60.9    68    5.9   138    17.5   1014.8    0.00 
 293   13:50   0.54   60.6    68    5.4   108    16.2   1014.8    0.00 
 293   14:00   0.51   60.7    68    5.3   157    13.7   1014.5    0.00 
 293   14:10   0.49   60.9    67    5.5   138    17.8   1014.7    0.00 
 293   14:20   0.46   61.0    65    6.8    99    19.6   1014.9    0.00 
 293   14:30   0.42   60.9    64    7.5    75    22.1   1015.0    0.00 
 293   14:40   0.43   61.1    63    6.6    83    17.4   1014.8    0.00 
 293   14:50   0.41   61.1    62    5.7    82    18.0   1014.8    0.00 
 293   15:00   0.39   61.1    62    6.7    70    24.6   1014.9    0.00 
 293   15:10   0.36   61.1    63    6.3    73    19.1   1014.9    0.00 
 293   15:20   0.33   61.0    63    7.3    69    20.2   1015.0    0.00 
 293   15:30   0.31   60.7    63    9.5    67    28.4   1014.9    0.00 
 293   15:40   0.28   60.6    63    6.6    68    20.1   1014.8    0.00 
 293   15:50   0.24   60.5    62    7.1    55    21.5   1014.8    0.00 
 293   16:00   0.28   60.3    63    7.9    61    21.5   1014.7    0.00 
 293   16:10   0.14   59.9    64    9.3    74    19.6   1014.6    0.00 
 293   16:20   0.09   58.9    67    8.5    64    23.7   1014.7    0.00 
 293   16:30   0.14   59.1    67    9.8    70    19.1   1014.7    0.00 
 293   16:40   0.08   59.3    68    8.6    59    21.3   1014.8    0.00 
 293   16:50   0.05   59.3    66    9.9    68    27.0   1014.7    0.00 
 293   17:00   0.04   59.4    65    8.2    55    23.0   1014.8    0.00 
 293   17:10   0.03   59.2    64    9.0    64    20.4   1014.8    0.00 
 293   17:20   0.01   59.0    65    8.6    60    16.4   1014.9    0.00 
 293   17:30   0.01   58.8    65    6.4    61    14.0   1015.1    0.00 
 293   17:40   0.01   58.8    64    7.8    64    17.7   1015.2    0.00 
 293   17:50   0.00   58.6    64    5.7    57    10.9   1015.4    0.00 
 293   18:00   0.00   58.6    64    2.5    89     6.9   1015.4    0.00 
 293   18:10   0.00   58.2    64    1.6    44     5.5   1015.4    0.00 
 293   18:20   0.00   56.4    70    0.8    60     2.3   1015.6    0.00 
 293   18:30   0.00   55.5    72    1.2    62     2.6   1015.8    0.00 
 293   18:40   0.00   55.1    73    1.3    52     3.6   1016.1    0.00 
 293   18:50   0.00   54.4    76    2.1    45     5.3   1016.1    0.00 
 293   19:00   0.00   53.9    76    2.1    38     4.7   1016.0    0.00 
 293   19:10   0.00   53.5    77    1.7    28     5.0   1015.9    0.00 
 293   19:20   0.00   53.1    77    2.4    39     5.0   1016.0    0.00 
 293   19:30   0.00   52.8    77    2.2    45     5.3   1016.1    0.00 
 293   19:40   0.00   52.4    77    1.9    57     4.7   1016.2    0.00 
 293   19:50   0.00   52.1    78    1.8    50     4.5   1016.3    0.00 
 293   20:00   0.00   52.0    77    1.6    61     4.4   1016.3    0.00 
 293   20:10   0.00   53.4    70    1.1    54     2.9   1016.3    0.00 
 293   20:20   0.00   52.9    72    0.6    46     2.9   1016.2    0.00 
 293   20:30   0.00   52.5    72    0.4    43     2.9   1016.2    0.00 
 293   20:40   0.00   51.8    74    0.4    14     2.6   1016.4    0.00 
 293   20:50   0.00   51.5    75    1.4    26     3.0   1016.5    0.00 
 293   21:00   0.00   51.4    74    2.0    55     4.7   1016.6    0.00 
 293   21:10   0.00   51.3    74    1.6    41     3.9   1016.6    0.00 
 293   21:20   0.00   51.4    73    2.1    56     4.5   1016.7    0.00 
 293   21:30   0.00   51.4    72    2.0    20     4.3   1016.7    0.00 
 293   21:40   0.00   51.5    71    2.6    34     5.9   1016.8    0.00 
 293   21:50   0.00   51.2    71    3.2    43     7.7   1016.8    0.00 
 293   22:00   0.00   51.0    71    3.7    39     6.1   1016.9    0.00 
 293   22:10   0.00   51.1    70    3.0    25     6.9   1016.9    0.00 
 293   22:20   0.00   51.4    68    2.3    27     4.5   1016.9    0.00 
 293   22:30   0.00   51.1    69    2.4    31     5.3   1017.0    0.00 
 293   22:40   0.00   51.0    69    1.9    42     4.5   1016.9    0.00 
 293   22:50   0.00   50.8    70    2.1    28     5.0   1016.8    0.00 
 293   23:00   0.00   50.5    71    1.6    28     4.7   1016.7    0.00 
 293   23:10   0.00   50.3    71    2.3    56     4.7   1016.6    0.00 
 293   23:20   0.00   51.5    64    1.5    37     3.9   1016.7    0.00 
 293   23:30   0.00   51.4    65    1.9     8     4.6   1016.8    0.00 
 293   23:40   0.00   50.7    66    1.9    20     3.9   1017.0    0.00 
 293   23:50   0.00   50.3    69    1.9    38     4.5   1017.0    0.00 

Return to Big Creek Reserve Entrance graphs page.


Western Regional Climate Center,wrcc@dri.edu